Time;durP1;ratioP1;P1;durP2;ratioP2;P2;SDS_P1;SDS_P2;PMS_P1;PMS_P2;Temp;Humidity;BMP_temperature;BMP_pressure;BME280_temperature;BME280_humidity;BME280_pressure;Samples;Min_cycle;Max_cycle;Signal;HPM_P1;HPM_P2
2022/03/06 00:00:08;;;;;;;7.25;4.47;;;5.30;91.80;;;;;;4950990;28;20115;-72
2022/03/06 00:02:38;;;;;;;12.75;5.25;;;5.30;91.70;;;;;;4942694;29;20047;-71
2022/03/06 00:05:04;;;;;;;10.00;4.68;;;5.40;91.70;;;;;;4947927;28;20027;-71
2022/03/06 00:07:30;;;;;;;8.35;4.25;;;5.40;91.70;;;;;;4950711;29;20046;-72
2022/03/06 00:09:56;;;;;;;10.73;4.20;;;5.40;91.70;;;;;;4950580;28;20459;-71
2022/03/06 00:12:22;;;;;;;7.15;4.43;;;5.40;91.70;;;;;;4950761;28;20031;-71
2022/03/06 00:14:56;;;;;;;9.43;4.88;;;5.30;91.70;;;;;;4940705;28;20102;-72
2022/03/06 00:17:22;;;;;;;7.25;4.25;;;5.40;91.60;;;;;;4944983;28;20043;-71
2022/03/06 00:19:48;;;;;;;8.60;3.83;;;5.40;91.60;;;;;;4942813;29;20031;-71
2022/03/06 00:22:13;;;;;;;9.77;4.40;;;5.40;91.60;;;;;;4946956;28;20403;-71
2022/03/06 00:24:39;;;;;;;11.77;4.43;;;5.40;91.60;;;;;;4945100;29;20086;-71
2022/03/06 00:27:05;;;;;;;11.02;4.57;;;5.40;91.60;;;;;;4949449;28;20059;-72
2022/03/06 00:29:30;;;;;;;8.68;4.20;;;5.40;91.50;;;;;;4950348;28;20046;-72
2022/03/06 00:31:56;;;;;;;8.18;3.75;;;5.40;91.30;;;;;;4949078;28;20028;-72
2022/03/06 00:34:22;;;;;;;9.43;3.80;;;5.40;91.10;;;;;;4950793;28;20110;-72
2022/03/06 00:36:48;;;;;;;7.70;4.13;;;5.50;91.00;;;;;;4951089;28;20089;-72
2022/03/06 00:39:13;;;;;;;7.63;4.65;;;5.50;90.90;;;;;;4951594;28;20055;-72
2022/03/06 00:41:39;;;;;;;9.32;4.07;;;5.50;90.80;;;;;;4950520;28;20050;-72
2022/03/06 00:44:05;;;;;;;9.45;3.55;;;5.50;90.80;;;;;;4938197;28;20109;-72
2022/03/06 00:46:31;;;;;;;6.70;4.13;;;5.60;90.70;;;;;;4951326;28;20055;-72
2022/03/06 00:48:56;;;;;;;8.90;4.20;;;5.60;90.60;;;;;;4937675;28;20039;-72
2022/03/06 00:51:24;;;;;;;8.10;3.97;;;5.60;90.60;;;;;;4951204;28;20390;-72
2022/03/06 00:53:50;;;;;;;5.93;3.28;;;5.60;90.50;;;;;;4950709;28;20065;-72
2022/03/06 00:56:16;;;;;;;7.93;3.70;;;5.60;90.50;;;;;;4950415;28;20050;-71
2022/03/06 00:58:41;;;;;;;7.18;3.70;;;5.60;90.60;;;;;;4938354;28;20528;-72
2022/03/06 01:01:10;;;;;;;8.07;3.83;;;5.60;90.60;;;;;;4931855;29;20032;-72
2022/03/06 01:03:37;;;;;;;9.63;4.03;;;5.60;90.60;;;;;;4943736;29;20035;-72
2022/03/06 01:06:03;;;;;;;7.60;4.38;;;5.60;90.60;;;;;;4945292;28;20062;-72
2022/03/06 01:08:29;;;;;;;12.25;4.13;;;5.60;90.50;;;;;;4942767;28;20059;-72
2022/03/06 01:10:55;;;;;;;6.60;3.60;;;5.60;90.40;;;;;;4939872;29;20023;-72
2022/03/06 01:13:21;;;;;;;6.57;3.67;;;5.60;90.50;;;;;;4954449;28;20039;-72
2022/03/06 01:15:47;;;;;;;5.68;3.40;;;5.70;90.70;;;;;;4953816;28;20080;-71
2022/03/06 01:18:13;;;;;;;6.90;3.28;;;5.60;90.70;;;;;;4953313;28;20038;-72
2022/03/06 01:20:39;;;;;;;7.95;3.60;;;5.60;90.80;;;;;;4954161;28;20490;-71
2022/03/06 01:23:06;;;;;;;6.63;3.63;;;5.60;90.80;;;;;;4953202;28;20394;-72
2022/03/06 01:25:32;;;;;;;6.05;3.70;;;5.60;90.90;;;;;;4954212;29;20394;-72
2022/03/06 01:27:58;;;;;;;6.53;2.85;;;5.60;91.10;;;;;;4953696;28;20062;-72
2022/03/06 01:30:25;;;;;;;8.68;2.72;;;5.50;91.20;;;;;;4953447;28;20034;-71
2022/03/06 01:32:51;;;;;;;7.25;2.92;;;5.50;91.30;;;;;;4952841;29;20153;-71
2022/03/06 01:35:17;;;;;;;7.97;3.60;;;5.40;91.50;;;;;;4946274;28;20034;-71
2022/03/06 01:37:43;;;;;;;6.68;2.75;;;5.50;91.50;;;;;;4949042;28;20437;-71
2022/03/06 01:40:11;;;;;;;5.53;3.13;;;5.40;91.60;;;;;;4954048;28;20028;-71
2022/03/06 01:42:44;;;;;;;7.93;3.10;;;5.40;91.60;;;;;;4953691;28;20537;-71
2022/03/06 01:45:11;;;;;;;17.98;2.75;;;5.40;91.60;;;;;;4942809;28;20038;-71
2022/03/06 01:47:40;;;;;;;9.63;3.53;;;5.40;91.50;;;;;;4951390;28;20040;-71
2022/03/06 01:50:18;;;;;;;7.82;3.17;;;5.40;91.50;;;;;;4942523;28;20051;-71
2022/03/06 01:52:44;;;;;;;6.22;2.83;;;5.40;91.60;;;;;;4940823;28;20075;-72
2022/03/06 01:55:14;;;;;;;8.07;3.03;;;5.40;91.70;;;;;;4952339;28;20074;-72
2022/03/06 01:57:40;;;;;;;7.32;3.08;;;5.40;91.80;;;;;;4934668;29;20123;-71
2022/03/06 02:00:09;;;;;;;6.43;2.92;;;5.40;91.90;;;;;;4945960;28;20028;-71
2022/03/06 02:02:40;;;;;;;5.35;2.70;;;5.40;91.80;;;;;;4943873;28;20110;-71
2022/03/06 02:05:06;;;;;;;6.03;2.97;;;5.40;92.00;;;;;;4946999;28;20102;-71
2022/03/06 02:07:32;;;;;;;7.25;2.95;;;5.40;92.00;;;;;;4951595;28;20035;-71
2022/03/06 02:10:03;;;;;;;8.35;3.42;;;5.40;92.10;;;;;;4953397;28;20497;-71
2022/03/06 02:12:29;;;;;;;7.25;3.00;;;5.40;92.10;;;;;;4952485;28;20197;-71
2022/03/06 02:14:58;;;;;;;6.38;3.05;;;5.40;92.20;;;;;;4953264;28;20043;-71
2022/03/06 02:17:24;;;;;;;8.55;2.70;;;5.40;92.20;;;;;;4952714;28;20035;-71
2022/03/06 02:19:58;;;;;;;8.85;3.30;;;5.40;92.20;;;;;;4952185;28;20470;-72
2022/03/06 02:22:33;;;;;;;5.82;2.63;;;5.40;92.30;;;;;;4952579;29;20046;-71
2022/03/06 02:25:02;;;;;;;7.47;3.33;;;5.40;92.30;;;;;;4992203;28;20097;-71
2022/03/06 02:27:28;;;;;;;4.72;2.42;;;5.40;92.40;;;;;;4962974;28;20382;-71
2022/03/06 02:29:53;;;;;;;5.78;3.05;;;5.40;92.50;;;;;;4941014;28;20062;-71
2022/03/06 02:32:22;;;;;;;5.85;3.55;;;5.40;92.50;;;;;;4958177;28;20031;-72
2022/03/06 02:34:50;;;;;;;4.60;2.90;;;5.40;92.50;;;;;;4932746;29;20032;-71
2022/03/06 02:37:21;;;;;;;9.88;3.65;;;5.40;92.60;;;;;;4980112;28;20145;-72
2022/03/06 02:39:48;;;;;;;6.40;3.45;;;5.40;92.50;;;;;;4961120;28;20485;-71
2022/03/06 02:42:31;;;;;;;10.10;3.22;;;5.40;92.50;;;;;;4977817;28;20039;-71
2022/03/06 02:44:58;;;;;;;13.85;3.58;;;5.40;92.40;;;;;;4957885;28;20037;-72
2022/03/06 02:47:25;;;;;;;4.93;2.97;;;5.40;92.30;;;;;;4952963;28;20027;-72
2022/03/06 02:49:51;;;;;;;6.43;2.60;;;5.40;92.30;;;;;;4940823;28;20071;-71
2022/03/06 02:52:18;;;;;;;6.25;3.10;;;5.40;92.30;;;;;;4949612;28;20054;-71
2022/03/06 02:54:44;;;;;;;7.85;3.35;;;5.40;92.20;;;;;;4955431;28;20054;-72
2022/03/06 02:57:11;;;;;;;13.02;3.25;;;5.50;92.20;;;;;;4969235;28;20491;-71
2022/03/06 02:59:37;;;;;;;6.68;2.70;;;5.40;92.20;;;;;;4989023;28;20035;-72
2022/03/06 03:02:04;;;;;;;9.02;3.45;;;5.50;92.30;;;;;;4950188;28;20108;-72
2022/03/06 03:04:31;;;;;;;6.90;3.28;;;5.50;92.50;;;;;;4944681;28;20031;-72
2022/03/06 03:06:57;;;;;;;6.20;3.15;;;5.50;92.20;;;;;;4951356;28;20481;-72
2022/03/06 03:09:23;;;;;;;4.75;2.70;;;5.40;92.20;;;;;;4943990;28;20070;-71
2022/03/06 03:11:54;;;;;;;8.13;2.97;;;5.50;92.20;;;;;;4951657;28;20104;-72
2022/03/06 03:14:21;;;;;;;9.00;3.40;;;5.40;92.20;;;;;;4943825;29;20534;-72
2022/03/06 03:16:47;;;;;;;4.60;3.10;;;5.40;92.10;;;;;;4944653;28;20245;-71
2022/03/06 03:19:12;;;;;;;5.00;2.75;;;5.40;92.20;;;;;;4939982;28;20065;-72
2022/03/06 03:21:38;;;;;;;12.15;3.70;;;5.40;92.30;;;;;;5004688;28;20045;-72
2022/03/06 03:24:05;;;;;;;6.82;3.15;;;5.40;92.30;;;;;;4953662;28;20029;-72
2022/03/06 03:26:31;;;;;;;6.47;2.92;;;5.40;92.20;;;;;;4970735;28;20042;-72
2022/03/06 03:28:56;;;;;;;7.18;3.63;;;5.30;92.10;;;;;;4990457;28;20028;-72
2022/03/06 03:31:22;;;;;;;8.95;3.45;;;5.40;92.00;;;;;;4960508;28;20035;-72
2022/03/06 03:33:47;;;;;;;6.18;3.20;;;5.30;91.90;;;;;;4950524;28;20030;-72
2022/03/06 03:36:13;;;;;;;8.35;3.70;;;5.40;91.90;;;;;;4937598;28;20067;-72
2022/03/06 03:38:40;;;;;;;6.60;2.85;;;5.40;91.80;;;;;;5007863;28;20049;-72
2022/03/06 03:41:09;;;;;;;10.93;3.35;;;5.40;91.80;;;;;;4950577;28;20397;-72
2022/03/06 03:43:35;;;;;;;8.85;3.35;;;5.30;91.80;;;;;;4950247;28;20089;-71
2022/03/06 03:46:01;;;;;;;10.45;3.13;;;5.30;91.80;;;;;;4953426;28;20035;-72
2022/03/06 03:48:29;;;;;;;6.60;3.00;;;5.30;91.80;;;;;;4950457;29;20096;-72
2022/03/06 03:50:55;;;;;;;5.00;2.75;;;5.30;91.80;;;;;;4937608;28;20147;-72
2022/03/06 03:53:22;;;;;;;6.90;4.00;;;5.30;91.90;;;;;;4950802;28;20038;-72
2022/03/06 03:55:48;;;;;;;5.80;3.35;;;5.30;91.90;;;;;;5003027;28;20043;-72
2022/03/06 03:58:14;;;;;;;5.18;3.08;;;5.20;91.80;;;;;;4943015;29;20039;-72
2022/03/06 04:00:42;;;;;;;7.50;3.53;;;5.20;91.90;;;;;;4938129;29;20030;-71
2022/03/06 04:03:07;;;;;;;8.18;3.35;;;5.20;91.90;;;;;;4948875;28;20074;-72
2022/03/06 04:05:33;;;;;;;5.68;2.95;;;5.20;91.90;;;;;;4938524;29;20097;-72
2022/03/06 04:07:59;;;;;;;10.95;3.67;;;5.20;91.90;;;;;;4950155;28;20046;-72
2022/03/06 04:10:25;;;;;;;5.05;3.10;;;5.20;91.80;;;;;;4950328;28;20425;-72
2022/03/06 04:12:50;;;;;;;5.65;2.70;;;5.20;91.80;;;;;;4949196;28;20417;-71
2022/03/06 04:15:16;;;;;;;7.60;3.20;;;5.20;91.70;;;;;;4949296;28;20027;-71
2022/03/06 04:17:41;;;;;;;7.63;3.20;;;5.20;91.80;;;;;;4934380;28;20032;-72
2022/03/06 04:20:08;;;;;;;5.47;3.13;;;5.20;91.70;;;;;;4938288;28;20414;-71
2022/03/06 04:22:34;;;;;;;6.20;2.90;;;5.20;91.70;;;;;;4948072;28;20494;-72
2022/03/06 04:24:59;;;;;;;6.00;2.85;;;5.20;91.70;;;;;;4939349;29;20055;-71
2022/03/06 04:27:25;;;;;;;7.07;3.10;;;5.20;91.60;;;;;;4949144;28;20426;-72
2022/03/06 04:29:51;;;;;;;4.68;2.45;;;5.20;91.60;;;;;;5009580;28;20110;-72
2022/03/06 04:32:16;;;;;;;7.35;3.40;;;5.20;91.60;;;;;;4949426;28;20402;-71
2022/03/06 04:34:42;;;;;;;6.72;2.70;;;5.20;91.40;;;;;;4949049;28;20062;-71
2022/03/06 04:37:08;;;;;;;5.85;3.30;;;5.20;91.30;;;;;;4949673;28;20045;-72
2022/03/06 04:39:33;;;;;;;9.50;3.08;;;5.20;91.10;;;;;;4950093;28;20524;-71
2022/03/06 04:41:59;;;;;;;5.05;2.55;;;5.20;91.00;;;;;;4951475;28;20059;-72
2022/03/06 04:44:25;;;;;;;8.05;2.70;;;5.20;90.90;;;;;;4957368;28;20470;-71
2022/03/06 04:46:51;;;;;;;4.88;2.60;;;5.20;90.80;;;;;;4958282;28;20083;-72
2022/03/06 04:49:16;;;;;;;9.20;3.63;;;5.20;90.70;;;;;;4953081;28;20034;-71
2022/03/06 04:51:42;;;;;;;7.50;2.63;;;5.20;90.60;;;;;;4952894;28;20085;-72
2022/03/06 04:54:08;;;;;;;4.95;2.60;;;5.20;90.60;;;;;;4952459;28;20039;-71
2022/03/06 04:56:35;;;;;;;5.28;2.70;;;5.20;90.50;;;;;;4952604;29;20043;-71
2022/03/06 04:59:01;;;;;;;6.40;2.20;;;5.20;90.50;;;;;;4952837;28;20042;-71
2022/03/06 05:01:26;;;;;;;3.38;2.20;;;5.20;90.60;;;;;;4939307;29;20042;-72
2022/03/06 05:03:52;;;;;;;6.22;2.65;;;5.20;90.60;;;;;;4953035;28;20122;-71
2022/03/06 05:06:18;;;;;;;6.90;2.83;;;5.20;90.60;;;;;;4952723;28;20031;-71
2022/03/06 05:08:43;;;;;;;6.65;2.53;;;5.10;90.60;;;;;;4943326;28;20386;-71
2022/03/06 05:11:09;;;;;;;5.00;2.35;;;5.20;90.60;;;;;;4933453;28;20431;-71
2022/03/06 05:13:35;;;;;;;11.25;2.58;;;5.10;90.60;;;;;;4943259;28;20027;-71
2022/03/06 05:16:00;;;;;;;5.68;2.10;;;5.10;90.60;;;;;;4951703;28;20085;-71
2022/03/06 05:18:26;;;;;;;4.18;2.50;;;5.10;90.50;;;;;;4953116;28;20394;-72
2022/03/06 05:20:52;;;;;;;9.32;2.75;;;5.10;90.50;;;;;;4952638;28;20031;-71
2022/03/06 05:23:17;;;;;;;9.63;3.25;;;5.10;90.40;;;;;;4941819;28;20047;-71
2022/03/06 05:25:44;;;;;;;7.88;2.55;;;5.10;90.40;;;;;;4950067;28;20525;-72
2022/03/06 05:28:11;;;;;;;6.57;2.70;;;5.10;90.30;;;;;;4959040;28;20096;-72
2022/03/06 05:30:37;;;;;;;3.58;2.55;;;5.00;90.30;;;;;;4951949;28;20031;-71
2022/03/06 05:33:03;;;;;;;2.78;2.08;;;5.10;90.30;;;;;;5007036;28;20039;-71
2022/03/06 05:35:29;;;;;;;5.45;2.78;;;5.00;90.30;;;;;;4945915;28;20035;-71
2022/03/06 05:37:54;;;;;;;5.30;2.35;;;5.00;90.40;;;;;;4951709;28;20458;-72
2022/03/06 05:40:23;;;;;;;2.60;2.00;;;5.00;90.40;;;;;;4952064;28;20035;-72
2022/03/06 05:42:49;;;;;;;4.35;2.20;;;5.00;90.60;;;;;;4952390;28;20043;-71
2022/03/06 05:45:15;;;;;;;2.13;1.80;;;4.80;90.70;;;;;;4958935;28;20488;-71
2022/03/06 05:47:41;;;;;;;4.47;1.70;;;4.80;90.90;;;;;;4952262;28;20039;-71
2022/03/06 05:50:07;;;;;;;5.43;1.80;;;4.80;91.30;;;;;;4973654;28;20037;-71
2022/03/06 05:52:33;;;;;;;6.38;2.05;;;4.70;91.50;;;;;;4967956;28;20116;-71
2022/03/06 05:54:59;;;;;;;1.85;1.45;;;4.70;91.50;;;;;;4955445;28;20114;-71
2022/03/06 05:57:26;;;;;;;2.47;1.50;;;4.70;91.60;;;;;;4961490;28;20481;-71
2022/03/06 05:59:52;;;;;;;6.78;1.90;;;4.60;91.60;;;;;;4973380;28;20054;-71
2022/03/06 06:02:19;;;;;;;3.33;1.98;;;4.50;91.60;;;;;;4962755;28;20130;-71
2022/03/06 06:04:45;;;;;;;2.08;1.40;;;4.50;91.70;;;;;;4950948;28;20102;-71
2022/03/06 06:07:12;;;;;;;3.95;1.90;;;4.50;91.80;;;;;;4951206;28;20402;-71
2022/03/06 06:09:37;;;;;;;3.67;1.52;;;4.50;91.80;;;;;;4949579;29;20039;-71
2022/03/06 06:12:04;;;;;;;4.03;2.22;;;4.40;91.80;;;;;;4932093;28;20032;-71
2022/03/06 06:14:29;;;;;;;2.58;1.80;;;4.50;91.80;;;;;;4947651;28;20039;-71
2022/03/06 06:16:55;;;;;;;3.35;1.40;;;4.40;91.70;;;;;;4951897;28;20093;-71
2022/03/06 06:19:20;;;;;;;4.25;1.52;;;4.40;91.70;;;;;;4947956;28;20411;-71
2022/03/06 06:21:46;;;;;;;5.53;2.10;;;4.40;91.60;;;;;;4932655;28;20024;-71
2022/03/06 06:24:13;;;;;;;1.95;1.60;;;4.40;91.50;;;;;;4935466;28;20474;-71
2022/03/06 06:26:40;;;;;;;2.53;1.65;;;4.40;91.30;;;;;;4941249;28;20471;-72
2022/03/06 06:29:05;;;;;;;1.70;1.50;;;4.40;91.20;;;;;;5003817;28;20124;-72
2022/03/06 06:31:31;;;;;;;3.95;2.13;;;4.40;91.00;;;;;;4979093;28;20119;-71
2022/03/06 06:33:57;;;;;;;7.38;1.80;;;4.40;90.90;;;;;;4983449;28;20444;-72
2022/03/06 06:36:23;;;;;;;3.88;1.67;;;4.40;90.80;;;;;;4944822;28;20027;-71
2022/03/06 06:38:50;;;;;;;2.67;1.60;;;4.40;90.90;;;;;;4944654;29;20039;-72
2022/03/06 06:41:16;;;;;;;2.60;1.52;;;4.40;90.80;;;;;;4931809;29;20032;-71
2022/03/06 06:43:45;;;;;;;4.10;2.08;;;4.50;90.80;;;;;;4946228;29;20043;-71
2022/03/06 06:46:11;;;;;;;2.67;1.63;;;4.40;90.90;;;;;;4961445;28;20100;-71
2022/03/06 06:48:37;;;;;;;3.25;1.70;;;4.50;90.90;;;;;;4948278;28;20031;-71
2022/03/06 06:51:04;;;;;;;3.03;1.83;;;4.50;90.80;;;;;;4940866;29;20027;-71
2022/03/06 06:53:30;;;;;;;5.95;2.20;;;4.40;90.90;;;;;;4937922;28;20069;-71
2022/03/06 06:55:55;;;;;;;1.70;1.50;;;4.50;90.80;;;;;;4941807;28;20066;-71
2022/03/06 06:58:21;;;;;;;4.28;1.70;;;4.50;90.90;;;;;;4948038;28;20039;-71
2022/03/06 07:00:47;;;;;;;4.85;1.67;;;4.50;90.80;;;;;;4950529;28;20042;-71
2022/03/06 07:03:12;;;;;;;2.80;1.60;;;4.50;90.60;;;;;;4950926;28;20118;-71
2022/03/06 07:05:38;;;;;;;6.50;2.00;;;4.50;90.60;;;;;;4951304;28;20038;-71
2022/03/06 07:08:04;;;;;;;6.47;2.17;;;4.50;90.40;;;;;;4945865;28;20040;-71
2022/03/06 07:10:30;;;;;;;3.17;1.73;;;4.60;90.30;;;;;;4942494;28;20046;-71
2022/03/06 07:12:55;;;;;;;2.42;1.65;;;4.60;90.00;;;;;;4950952;28;20035;-71
2022/03/06 07:15:27;;;;;;;5.63;2.47;;;4.60;90.00;;;;;;4950416;28;20445;-71
2022/03/06 07:17:56;;;;;;;3.97;2.00;;;4.70;89.70;;;;;;4971230;28;20066;-71
2022/03/06 07:20:21;;;;;;;6.63;2.35;;;4.70;89.30;;;;;;4951474;28;20517;-71
2022/03/06 07:22:47;;;;;;;3.50;1.73;;;4.80;89.00;;;;;;4963036;28;20044;-71
2022/03/06 07:25:12;;;;;;;6.82;2.40;;;4.80;89.00;;;;;;4953836;28;20032;-71
2022/03/06 07:27:41;;;;;;;6.82;1.98;;;4.80;88.90;;;;;;4973745;28;20039;-72
2022/03/06 07:30:08;;;;;;;3.80;2.08;;;4.80;89.30;;;;;;4956387;28;20039;-71
2022/03/06 07:32:43;;;;;;;4.15;1.80;;;4.80;88.40;;;;;;4962538;28;20377;-71
2022/03/06 07:35:10;;;;;;;3.72;1.98;;;4.90;88.20;;;;;;4948438;29;20108;-71
2022/03/06 07:37:36;;;;;;;6.75;2.20;;;4.90;88.20;;;;;;4993395;28;20034;-72
2022/03/06 07:40:01;;;;;;;6.43;2.15;;;4.90;88.10;;;;;;4971693;28;20081;-71
2022/03/06 07:42:27;;;;;;;3.88;1.48;;;4.90;87.90;;;;;;4961061;28;20134;-72
2022/03/06 07:44:53;;;;;;;6.38;2.03;;;4.90;87.80;;;;;;4949157;28;20061;-71
2022/03/06 07:47:18;;;;;;;3.85;2.10;;;5.10;87.70;;;;;;4960684;28;20474;-72
2022/03/06 07:49:44;;;;;;;6.38;2.00;;;5.00;87.40;;;;;;4949183;28;20034;-72
2022/03/06 07:52:10;;;;;;;6.10;2.03;;;5.10;87.20;;;;;;4960587;28;20065;-71
2022/03/06 07:54:35;;;;;;;6.93;2.00;;;5.10;87.20;;;;;;4960554;28;20041;-71
2022/03/06 07:57:01;;;;;;;5.07;1.25;;;5.10;87.10;;;;;;4948326;28;20045;-72
2022/03/06 07:59:28;;;;;;;3.58;1.67;;;5.20;87.60;;;;;;4948922;28;20035;-71
2022/03/06 08:01:54;;;;;;;5.13;2.10;;;5.20;87.70;;;;;;4951283;28;20058;-73
2022/03/06 08:04:20;;;;;;;9.18;1.70;;;5.20;87.00;;;;;;4956080;28;20058;-76
2022/03/06 08:06:47;;;;;;;2.00;1.70;;;5.20;87.20;;;;;;4948938;28;20051;-76
2022/03/06 08:09:13;;;;;;;5.57;2.22;;;5.30;87.70;;;;;;4951616;28;20497;-75
2022/03/06 08:11:39;;;;;;;5.50;2.20;;;5.30;87.60;;;;;;4954456;28;20659;-76
2022/03/06 08:14:04;;;;;;;2.58;1.73;;;5.30;87.20;;;;;;4946870;28;20019;-76
2022/03/06 08:16:30;;;;;;;1.35;1.25;;;5.40;87.20;;;;;;4947819;28;20122;-76
2022/03/06 08:18:56;;;;;;;2.97;1.65;;;5.40;87.40;;;;;;4945492;28;20106;-77
2022/03/06 08:21:21;;;;;;;2.30;1.42;;;5.50;88.00;;;;;;4956829;28;20471;-75
2022/03/06 08:23:49;;;;;;;2.40;1.65;;;5.50;87.40;;;;;;4950928;28;20375;-75
2022/03/06 08:26:15;;;;;;;2.95;1.80;;;5.50;87.60;;;;;;4975042;28;20040;-75
2022/03/06 08:28:41;;;;;;;3.83;1.60;;;5.50;87.00;;;;;;4963709;28;20109;-75
2022/03/06 08:31:06;;;;;;;3.42;1.75;;;5.60;87.00;;;;;;4952180;28;20035;-72
2022/03/06 08:33:32;;;;;;;4.43;2.08;;;5.60;87.00;;;;;;4958581;28;20475;-75
2022/03/06 08:35:58;;;;;;;4.90;1.80;;;5.60;87.60;;;;;;4969643;28;20031;-73
2022/03/06 08:38:23;;;;;;;6.53;2.10;;;5.60;87.10;;;;;;4959513;28;20031;-74
2022/03/06 08:40:49;;;;;;;2.70;1.60;;;5.60;85.90;;;;;;4948357;28;20054;-74
2022/03/06 08:43:15;;;;;;;2.38;1.70;;;5.60;86.00;;;;;;4949681;28;20035;-76
2022/03/06 08:45:40;;;;;;;2.45;1.70;;;5.70;86.30;;;;;;4945665;28;20034;-77
2022/03/06 08:48:06;;;;;;;3.17;1.25;;;5.70;86.30;;;;;;4944503;28;20027;-74
2022/03/06 08:50:32;;;;;;;5.88;1.95;;;5.70;86.70;;;;;;4947438;28;20027;-72
2022/03/06 08:52:57;;;;;;;4.22;2.08;;;5.70;86.30;;;;;;4948922;28;20061;-72
2022/03/06 08:55:23;;;;;;;1.70;1.45;;;5.80;85.90;;;;;;4959780;28;20140;-71
2022/03/06 08:57:48;;;;;;;4.25;1.95;;;5.80;86.00;;;;;;4937119;29;20039;-71
2022/03/06 09:00:14;;;;;;;4.57;2.22;;;5.80;85.40;;;;;;4949223;28;20062;-71
2022/03/06 09:02:40;;;;;;;3.42;1.80;;;5.80;85.50;;;;;;4962216;28;20072;-72
2022/03/06 09:05:06;;;;;;;3.38;1.60;;;5.80;85.10;;;;;;4946631;29;20036;-71
2022/03/06 09:07:32;;;;;;;1.70;1.60;;;5.80;85.20;;;;;;4950929;28;20042;-71
2022/03/06 09:09:57;;;;;;;4.25;1.98;;;5.80;84.80;;;;;;4951420;28;20035;-71
2022/03/06 09:12:26;;;;;;;2.67;1.55;;;5.80;84.90;;;;;;4947777;28;20035;-71
2022/03/06 09:14:55;;;;;;;2.55;1.60;;;5.90;85.10;;;;;;4952894;28;20505;-72
2022/03/06 09:17:21;;;;;;;3.17;1.60;;;5.90;85.80;;;;;;4949849;28;20023;-74
2022/03/06 09:19:47;;;;;;;2.85;1.63;;;5.90;85.90;;;;;;4951224;28;20398;-71
2022/03/06 09:22:12;;;;;;;3.67;2.17;;;5.90;85.60;;;;;;4947180;28;20043;-71
2022/03/06 09:24:38;;;;;;;6.88;2.25;;;5.90;85.40;;;;;;4948205;28;20040;-71
2022/03/06 09:27:04;;;;;;;1.95;1.42;;;5.90;84.60;;;;;;4946573;29;20110;-74
2022/03/06 09:29:30;;;;;;;8.15;2.45;;;5.90;84.80;;;;;;4948977;28;20044;-71
2022/03/06 09:31:55;;;;;;;4.20;1.80;;;5.90;84.90;;;;;;4958090;28;20088;-71
2022/03/06 09:34:21;;;;;;;4.72;1.70;;;5.90;85.10;;;;;;4953237;28;20502;-71
2022/03/06 09:36:47;;;;;;;4.28;2.40;;;5.90;84.80;;;;;;4958774;28;20085;-71
2022/03/06 09:39:13;;;;;;;4.72;1.80;;;5.90;84.30;;;;;;4946785;28;20035;-71
2022/03/06 09:41:39;;;;;;;4.47;2.03;;;5.90;84.50;;;;;;4952673;28;20122;-71
2022/03/06 09:44:10;;;;;;;6.07;2.03;;;6.00;84.30;;;;;;4951586;28;20604;-71
2022/03/06 09:46:38;;;;;;;7.82;1.80;;;6.00;84.00;;;;;;4945127;28;20035;-71
2022/03/06 09:49:05;;;;;;;5.18;1.85;;;6.10;83.90;;;;;;4948871;28;20047;-70
2022/03/06 09:51:38;;;;;;;3.15;1.80;;;6.10;84.40;;;;;;4944903;28;20030;-71
2022/03/06 09:54:04;;;;;;;1.58;1.02;;;6.10;84.60;;;;;;4946140;28;20055;-71
2022/03/06 09:56:30;;;;;;;4.88;2.33;;;6.10;85.00;;;;;;4949144;29;20040;-71
2022/03/06 09:58:55;;;;;;;3.33;1.90;;;6.10;85.20;;;;;;4958509;28;20122;-71
2022/03/06 10:01:21;;;;;;;4.00;2.20;;;6.20;84.90;;;;;;4956617;28;20073;-71
2022/03/06 10:03:47;;;;;;;5.82;2.10;;;6.20;84.70;;;;;;4946418;28;20093;-70
2022/03/06 10:06:12;;;;;;;5.97;1.85;;;6.20;84.50;;;;;;4954123;28;20031;-71
2022/03/06 10:08:38;;;;;;;1.88;1.10;;;6.20;83.90;;;;;;4949893;28;20046;-71
2022/03/06 10:11:10;;;;;;;2.70;1.90;;;6.30;84.40;;;;;;4949619;28;20027;-72
2022/03/06 10:13:43;;;;;;;5.28;2.15;;;6.40;84.70;;;;;;4950242;28;20031;-71
2022/03/06 10:16:19;;;;;;;;;;;6.40;83.80;;;;;;4949958;28;20093;-72
2022/03/06 10:18:51;;;;;;;4.53;2.03;;;6.40;84.60;;;;;;4957937;28;19918;-80
2022/03/06 10:21:32;;;;;;;8.27;2.25;;;6.50;84.10;;;;;;4948182;28;20093;-69
2022/03/06 10:24:08;;;;;;;4.45;2.17;;;6.50;84.00;;;;;;4948939;28;20039;-75
2022/03/06 10:26:35;;;;;;;9.20;2.17;;;6.50;83.90;;;;;;4948531;28;20038;-75
2022/03/06 10:29:04;;;;;;;4.18;1.90;;;6.50;84.30;;;;;;4949599;28;20031;-74
2022/03/06 10:31:32;;;;;;;6.03;2.58;;;6.50;84.00;;;;;;4955879;28;20074;-72
2022/03/06 10:34:12;;;;;;;8.50;2.38;;;6.60;83.30;;;;;;4936957;28;20036;-70
2022/03/06 10:36:47;;;;;;;5.30;2.42;;;6.60;83.10;;;;;;4944172;28;20039;-70
2022/03/06 10:39:21;;;;;;;4.72;2.40;;;6.60;83.20;;;;;;4945394;28;20492;-70
2022/03/06 10:41:49;;;;;;;5.20;2.20;;;6.60;82.70;;;;;;4957582;28;20039;-71
2022/03/06 10:44:17;;;;;;;6.63;2.30;;;6.70;81.90;;;;;;4949017;28;20112;-70
2022/03/06 10:46:56;;;;;;;7.05;2.40;;;6.70;81.70;;;;;;4957714;28;20609;-70
2022/03/06 10:49:21;;;;;;;6.13;2.38;;;6.80;81.40;;;;;;4947703;28;20231;-70
2022/03/06 10:51:52;;;;;;;5.07;2.35;;;6.80;81.40;;;;;;4957627;28;20225;-71
2022/03/06 10:54:19;;;;;;;4.97;2.50;;;6.80;81.50;;;;;;4946385;28;20043;-70
2022/03/06 10:56:50;;;;;;;5.30;2.40;;;6.90;81.70;;;;;;4948398;28;20410;-70
2022/03/06 10:59:19;;;;;;;5.72;2.35;;;6.90;82.40;;;;;;4949261;28;20406;-71
2022/03/06 11:01:47;;;;;;;4.75;2.20;;;6.80;81.80;;;;;;4957093;28;20031;-70
2022/03/06 11:04:13;;;;;;;3.42;2.28;;;6.90;81.20;;;;;;4946258;28;20498;-71
2022/03/06 11:06:41;;;;;;;6.72;2.03;;;6.90;81.70;;;;;;4947632;28;20039;-71
2022/03/06 11:09:14;;;;;;;5.43;2.47;;;6.90;81.80;;;;;;4947170;28;20067;-71
2022/03/06 11:11:42;;;;;;;6.78;3.17;;;7.00;81.80;;;;;;4945749;29;20433;-75
2022/03/06 11:14:08;;;;;;;4.82;1.92;;;7.00;82.80;;;;;;4947843;28;20169;-70
2022/03/06 11:16:36;;;;;;;3.47;2.15;;;7.10;83.00;;;;;;4949136;28;20039;-70
2022/03/06 11:19:02;;;;;;;2.83;1.70;;;7.10;82.70;;;;;;4946485;29;20392;-71
2022/03/06 11:21:28;;;;;;;3.85;2.38;;;7.10;83.20;;;;;;4948781;28;20024;-70
2022/03/06 11:23:57;;;;;;;4.30;2.22;;;7.10;82.80;;;;;;4948384;28;20500;-70
2022/03/06 11:26:42;;;;;;;5.22;2.47;;;7.10;82.30;;;;;;4949118;28;20035;-70
2022/03/06 11:29:39;;;;;;;5.15;2.30;;;7.10;81.50;;;;;;4948363;28;20046;-69
2022/03/06 11:32:06;;;;;;;7.15;2.15;;;7.20;83.20;;;;;;4992795;28;20033;-70
2022/03/06 11:34:35;;;;;;;6.80;2.30;;;7.20;83.70;;;;;;4942316;28;20426;-70
2022/03/06 11:37:17;;;;;;;4.50;2.33;;;7.20;84.50;;;;;;4929786;28;20032;-71
2022/03/06 11:39:47;;;;;;;6.32;2.38;;;7.20;83.80;;;;;;4940523;29;20036;-71
2022/03/06 11:42:50;;;;;;;5.63;2.17;;;7.20;84.20;;;;;;4948668;28;20055;-73
2022/03/06 11:45:50;;;;;;;4.57;2.35;;;7.20;84.60;;;;;;4947065;28;20035;-73
2022/03/06 11:48:34;;;;;;;4.32;1.98;;;7.30;84.30;;;;;;4979785;28;20121;-70
2022/03/06 11:51:15;;;;;;;;;;;7.30;84.50;;;;;;4954503;28;20031;-70
2022/03/06 11:54:07;;;;;;;4.80;2.67;;;7.40;85.80;;;;;;4930904;28;19910;-69
2022/03/06 11:56:33;;;;;;;5.10;2.72;;;7.30;85.30;;;;;;4938209;29;20524;-70
2022/03/06 11:59:19;;;;;;;6.05;2.28;;;7.40;85.20;;;;;;4960759;28;20047;-71
2022/03/06 12:01:49;;;;;;;6.90;2.30;;;7.30;85.80;;;;;;4949344;28;20077;-69
2022/03/06 12:04:37;;;;;;;4.80;2.28;;;7.40;86.80;;;;;;4948456;28;20386;-70
2022/03/06 12:07:08;;;;;;;5.57;2.45;;;7.30;86.30;;;;;;4937334;29;20023;-69
2022/03/06 12:09:37;;;;;;;8.88;2.35;;;7.40;86.30;;;;;;4948549;28;20084;-70
2022/03/06 12:12:21;;;;;;;6.75;1.98;;;7.50;86.80;;;;;;4946579;28;20039;-70
2022/03/06 12:14:50;;;;;;;7.38;2.30;;;7.50;87.40;;;;;;4945019;28;20034;-70
2022/03/06 12:17:18;;;;;;;6.07;1.52;;;7.50;88.00;;;;;;4947081;28;20031;-74
2022/03/06 12:19:43;;;;;;;4.80;2.58;;;7.50;88.80;;;;;;4947114;28;20449;-69
2022/03/06 12:22:12;;;;;;;5.88;1.83;;;7.50;89.10;;;;;;4945901;28;20027;-70
2022/03/06 12:24:43;;;;;;;4.20;2.10;;;7.50;89.00;;;;;;4947921;28;20035;-70
2022/03/06 12:27:20;;;;;;;4.72;2.03;;;7.50;89.30;;;;;;4945429;28;20130;-70
2022/03/06 12:29:46;;;;;;;4.68;2.05;;;7.60;88.70;;;;;;4948064;28;20071;-69
2022/03/06 12:32:31;;;;;;;3.92;2.05;;;7.60;89.40;;;;;;4956131;28;20055;-70
2022/03/06 12:35:05;;;;;;;7.20;1.80;;;7.60;89.60;;;;;;4947456;28;20032;-70
2022/03/06 12:37:31;;;;;;;5.30;2.13;;;7.70;89.90;;;;;;4948609;28;20063;-70
2022/03/06 12:39:58;;;;;;;6.20;2.30;;;7.70;90.40;;;;;;4947460;28;20062;-70
2022/03/06 12:42:32;;;;;;;5.07;1.92;;;7.70;90.00;;;;;;4947934;28;20040;-70
2022/03/06 12:45:00;;;;;;;5.18;1.83;;;7.70;89.80;;;;;;4948436;28;20031;-72
2022/03/06 12:47:26;;;;;;;5.57;2.35;;;7.80;90.40;;;;;;4946608;28;20101;-73
2022/03/06 12:49:53;;;;;;;6.85;1.90;;;7.80;90.20;;;;;;4944831;28;20445;-70
2022/03/06 12:52:28;;;;;;;4.40;1.75;;;7.80;90.30;;;;;;4951098;28;20046;-71
2022/03/06 12:55:03;;;;;;;6.47;1.70;;;7.80;90.20;;;;;;4993615;28;20094;-71
2022/03/06 12:57:31;;;;;;;4.72;1.80;;;7.90;89.80;;;;;;5028874;28;20468;-73
2022/03/06 12:59:57;;;;;;;5.80;1.85;;;7.90;89.50;;;;;;4947267;28;20038;-73